SQP7211 LYTV-UKBB
Flight info
| Callsign | SQP7211 |
|---|---|
| Flight time | 1h 42m |
| Altitude | 37000 |
| Route | NIK DCT YUYUH DCT ANASA DCT VILIS/K0832F370 DCT LAVDA DCT SULUM |
| Aircraft | A21N/M-SDE2E3FGHIRWXY/LB1 |
Departure
| Time | 2026-05-09 10:44 |
|---|---|
| Airport | Tivat Airport (LYTV) |
Arrival
| Time | 2026-05-09 12:26 |
|---|---|
| Airport | Boryspil International Airport (UKBB) |
| Time | Latitude | Longitude | Altitude | Speed | Heading |
|---|---|---|---|---|---|
| 2026-05-09 10:13 | 42.41308 | 18.71592 | 4 ft | 0 kts | 160° |
| 2026-05-09 10:37 | 42.41298 | 18.71595 | 3 ft | 3 kts | 178° |
| 2026-05-09 10:38 | 42.41263 | 18.71589 | 29 ft | 7 kts | 175° |
| 2026-05-09 10:38 | 42.41215 | 18.71629 | 30 ft | 9 kts | 137° |
| 2026-05-09 10:38 | 42.41163 | 18.71694 | 28 ft | 11 kts | 137° |
| 2026-05-09 10:38 | 42.41101 | 18.71767 | 28 ft | 13 kts | 139° |
| 2026-05-09 10:39 | 42.41043 | 18.71833 | 27 ft | 9 kts | 138° |
| 2026-05-09 10:39 | 42.41009 | 18.71857 | 27 ft | 5 kts | 206° |
| 2026-05-09 10:39 | 42.41001 | 18.71850 | 27 ft | 0 kts | 214° |
| 2026-05-09 10:40 | 42.40991 | 18.71840 | 27 ft | 4 kts | 220° |
| 2026-05-09 10:40 | 42.40961 | 18.71803 | 27 ft | 8 kts | 223° |
| 2026-05-09 10:41 | 42.40897 | 18.71820 | 26 ft | 17 kts | 140° |
| 2026-05-09 10:41 | 42.40753 | 18.71991 | 24 ft | 34 kts | 138° |
| 2026-05-09 10:41 | 42.40572 | 18.72206 | 24 ft | 35 kts | 139° |
| 2026-05-09 10:41 | 42.40384 | 18.72428 | 25 ft | 36 kts | 138° |
| 2026-05-09 10:42 | 42.40190 | 18.72658 | 29 ft | 38 kts | 139° |
| 2026-05-09 10:42 | 42.39990 | 18.72894 | 27 ft | 39 kts | 140° |
| 2026-05-09 10:42 | 42.39786 | 18.73136 | 27 ft | 37 kts | 139° |
| 2026-05-09 10:42 | 42.39684 | 18.73249 | 28 ft | 9 kts | 158° |
| 2026-05-09 10:43 | 42.39621 | 18.73277 | 25 ft | 11 kts | 123° |
| 2026-05-09 10:43 | 42.39652 | 18.73294 | 26 ft | 5 kts | 312° |
| 2026-05-09 10:43 | 42.39681 | 18.73259 | 29 ft | 11 kts | 318° |
| 2026-05-09 10:43 | 42.39936 | 18.72957 | 27 ft | 85 kts | 318° |
| 2026-05-09 10:44 | 42.40545 | 18.72237 | 25 ft | 145 kts | 319° |
| 2026-05-09 10:44 | 42.41355 | 18.71305 | 420 ft | 151 kts | 318° |
| 2026-05-09 10:44 | 42.42156 | 18.70444 | 1004 ft | 147 kts | 319° |
| 2026-05-09 10:44 | 42.42921 | 18.69465 | 1363 ft | 157 kts | 312° |
| 2026-05-09 10:45 | 42.43724 | 18.68450 | 1858 ft | 158 kts | 318° |
| 2026-05-09 10:46 | 42.47566 | 18.65612 | 3791 ft | 190 kts | 13° |
| 2026-05-09 10:46 | 42.48893 | 18.66037 | 4461 ft | 203 kts | 11° |
| 2026-05-09 10:46 | 42.50317 | 18.66412 | 5109 ft | 219 kts | 11° |
| 2026-05-09 10:46 | 42.51892 | 18.66821 | 5685 ft | 240 kts | 11° |
| 2026-05-09 10:47 | 42.53560 | 18.67263 | 6469 ft | 250 kts | 14° |
| 2026-05-09 10:47 | 42.55177 | 18.68297 | 7055 ft | 265 kts | 35° |
| 2026-05-09 10:47 | 42.56640 | 18.69859 | 7865 ft | 271 kts | 38° |
| 2026-05-09 10:47 | 42.58110 | 18.71489 | 8765 ft | 275 kts | 38° |
| 2026-05-09 10:48 | 42.59613 | 18.73131 | 9683 ft | 279 kts | 38° |
| 2026-05-09 10:48 | 42.61143 | 18.74786 | 10549 ft | 283 kts | 37° |
| 2026-05-09 10:48 | 42.62698 | 18.76458 | 11382 ft | 287 kts | 37° |
| 2026-05-09 10:48 | 42.64262 | 18.78134 | 12204 ft | 292 kts | 36° |
| 2026-05-09 10:49 | 42.65873 | 18.79855 | 13034 ft | 297 kts | 36° |
| 2026-05-09 10:49 | 42.67514 | 18.81603 | 13845 ft | 302 kts | 36° |
| 2026-05-09 10:49 | 42.69184 | 18.83379 | 14564 ft | 307 kts | 36° |
| 2026-05-09 10:49 | 42.70880 | 18.85184 | 15304 ft | 312 kts | 36° |
| 2026-05-09 10:50 | 42.72595 | 18.87015 | 16049 ft | 316 kts | 35° |
| 2026-05-09 10:50 | 42.74335 | 18.88876 | 16797 ft | 320 kts | 35° |
| 2026-05-09 10:50 | 42.76099 | 18.90764 | 17536 ft | 325 kts | 35° |
| 2026-05-09 10:50 | 42.77844 | 18.92750 | 18266 ft | 331 kts | 41° |
| 2026-05-09 10:51 | 42.79459 | 18.95090 | 18661 ft | 347 kts | 45° |
| 2026-05-09 10:51 | 42.81099 | 18.97612 | 18932 ft | 364 kts | 46° |
| 2026-05-09 10:51 | 42.82788 | 19.00221 | 19176 ft | 381 kts | 46° |
| 2026-05-09 10:51 | 42.84580 | 19.02981 | 19397 ft | 397 kts | 46° |
| 2026-05-09 10:52 | 42.86435 | 19.05828 | 19796 ft | 405 kts | 46° |
| 2026-05-09 10:52 | 42.88315 | 19.08714 | 20335 ft | 409 kts | 46° |
| 2026-05-09 10:52 | 42.90213 | 19.11624 | 20900 ft | 412 kts | 46° |
| 2026-05-09 10:52 | 42.92124 | 19.14557 | 21493 ft | 415 kts | 46° |
| 2026-05-09 10:53 | 42.94045 | 19.17504 | 22084 ft | 418 kts | 46° |
| 2026-05-09 10:53 | 42.95987 | 19.20487 | 22685 ft | 421 kts | 46° |
| 2026-05-09 10:53 | 42.97910 | 19.23446 | 23249 ft | 425 kts | 46° |
| 2026-05-09 10:53 | 42.99877 | 19.26475 | 23802 ft | 428 kts | 46° |
| 2026-05-09 10:54 | 43.01857 | 19.29529 | 24234 ft | 431 kts | 46° |
| 2026-05-09 10:54 | 43.03852 | 19.32605 | 24670 ft | 434 kts | 46° |
| 2026-05-09 10:54 | 43.05862 | 19.35708 | 25088 ft | 438 kts | 46° |
| 2026-05-09 10:54 | 43.07883 | 19.38833 | 25497 ft | 441 kts | 46° |
| 2026-05-09 10:55 | 43.09925 | 19.41996 | 25907 ft | 445 kts | 46° |
| 2026-05-09 10:55 | 43.11982 | 19.45185 | 26314 ft | 449 kts | 46° |
| 2026-05-09 10:55 | 43.14054 | 19.48401 | 26728 ft | 452 kts | 46° |
| 2026-05-09 10:55 | 43.16113 | 19.51604 | 27119 ft | 455 kts | 46° |
| 2026-05-09 10:56 | 43.18210 | 19.54865 | 27494 ft | 458 kts | 46° |
| 2026-05-09 10:56 | 43.20325 | 19.58155 | 27858 ft | 462 kts | 46° |
| 2026-05-09 10:56 | 43.22453 | 19.61473 | 28225 ft | 465 kts | 47° |
| 2026-05-09 10:56 | 43.24403 | 19.65043 | 28584 ft | 471 kts | 56° |
| 2026-05-09 10:57 | 43.26006 | 19.68993 | 28921 ft | 475 kts | 60° |
| 2026-05-09 10:57 | 43.27549 | 19.73022 | 29269 ft | 479 kts | 60° |
| 2026-05-09 10:57 | 43.29096 | 19.77081 | 29661 ft | 480 kts | 60° |
| 2026-05-09 10:57 | 43.30631 | 19.81090 | 30114 ft | 480 kts | 60° |
| 2026-05-09 10:58 | 43.32185 | 19.85140 | 30520 ft | 480 kts | 60° |
| 2026-05-09 10:58 | 43.33740 | 19.89189 | 30934 ft | 479 kts | 60° |
| 2026-05-09 10:58 | 43.35289 | 19.93227 | 31355 ft | 477 kts | 60° |
| 2026-05-09 10:58 | 43.36832 | 19.97259 | 31747 ft | 476 kts | 60° |
| 2026-05-09 10:59 | 43.38371 | 20.01289 | 32137 ft | 476 kts | 60° |
| 2026-05-09 10:59 | 43.39906 | 20.05309 | 32542 ft | 474 kts | 60° |
| 2026-05-09 10:59 | 43.41437 | 20.09322 | 32939 ft | 473 kts | 60° |
| 2026-05-09 10:59 | 43.42963 | 20.13330 | 33316 ft | 473 kts | 60° |
| 2026-05-09 11:00 | 43.44464 | 20.17283 | 33644 ft | 472 kts | 60° |
| 2026-05-09 11:00 | 43.45983 | 20.21287 | 34000 ft | 471 kts | 61° |
| 2026-05-09 11:00 | 43.47498 | 20.25284 | 34312 ft | 471 kts | 60° |
| 2026-05-09 11:00 | 43.49008 | 20.29272 | 34583 ft | 471 kts | 60° |
| 2026-05-09 11:01 | 43.50522 | 20.33272 | 34853 ft | 470 kts | 60° |
| 2026-05-09 11:01 | 43.52035 | 20.37277 | 35096 ft | 471 kts | 60° |
| 2026-05-09 11:01 | 43.53540 | 20.41269 | 35171 ft | 470 kts | 60° |
| 2026-05-09 11:02 | 43.56515 | 20.49202 | 35131 ft | 469 kts | 60° |
| 2026-05-09 11:02 | 43.59510 | 20.57187 | 35112 ft | 469 kts | 60° |
| 2026-05-09 11:03 | 43.62495 | 20.65188 | 35116 ft | 469 kts | 60° |
| 2026-05-09 11:03 | 43.65477 | 20.73184 | 35107 ft | 469 kts | 60° |
| 2026-05-09 11:04 | 43.68462 | 20.81205 | 35107 ft | 469 kts | 60° |
| 2026-05-09 11:04 | 43.71418 | 20.89180 | 35102 ft | 470 kts | 60° |
| 2026-05-09 11:05 | 43.74391 | 20.97227 | 35098 ft | 470 kts | 60° |
| 2026-05-09 11:05 | 43.77357 | 21.05273 | 35089 ft | 469 kts | 60° |
| 2026-05-09 11:06 | 43.80315 | 21.13324 | 35088 ft | 471 kts | 60° |
| 2026-05-09 11:06 | 43.83259 | 21.21358 | 35083 ft | 471 kts | 60° |
| 2026-05-09 11:07 | 43.86218 | 21.29453 | 35071 ft | 471 kts | 60° |
| 2026-05-09 11:07 | 43.89173 | 21.37557 | 35070 ft | 471 kts | 60° |
| 2026-05-09 11:08 | 43.92120 | 21.45668 | 35079 ft | 471 kts | 60° |
| 2026-05-09 11:08 | 43.95058 | 21.53782 | 35068 ft | 470 kts | 60° |
| 2026-05-09 11:09 | 43.97967 | 21.61843 | 35069 ft | 470 kts | 60° |
| 2026-05-09 11:09 | 44.00892 | 21.69965 | 35067 ft | 470 kts | 60° |
| 2026-05-09 11:10 | 44.03813 | 21.78106 | 35069 ft | 471 kts | 60° |
| 2026-05-09 11:10 | 44.06721 | 21.86233 | 35067 ft | 468 kts | 60° |
| 2026-05-09 11:11 | 44.09595 | 21.94290 | 35061 ft | 468 kts | 60° |
| 2026-05-09 11:11 | 44.12484 | 22.02409 | 35059 ft | 468 kts | 60° |
| 2026-05-09 11:12 | 44.15373 | 22.10552 | 35052 ft | 469 kts | 61° |
| 2026-05-09 11:12 | 44.18258 | 22.18711 | 35061 ft | 468 kts | 61° |
| 2026-05-09 11:13 | 44.21126 | 22.26836 | 35046 ft | 467 kts | 61° |
| 2026-05-09 11:13 | 44.23967 | 22.34910 | 35052 ft | 467 kts | 61° |
| 2026-05-09 11:14 | 44.26817 | 22.43053 | 35035 ft | 467 kts | 61° |
| 2026-05-09 11:14 | 44.29667 | 22.51203 | 35042 ft | 467 kts | 61° |
| 2026-05-09 11:15 | 44.33200 | 22.58664 | 35048 ft | 459 kts | 45° |
| 2026-05-09 11:15 | 44.37556 | 22.65101 | 35035 ft | 459 kts | 43° |
| 2026-05-09 11:16 | 44.41939 | 22.71579 | 35046 ft | 459 kts | 44° |
| 2026-05-09 11:16 | 44.46301 | 22.78096 | 35043 ft | 459 kts | 44° |
| 2026-05-09 11:17 | 44.50652 | 22.84624 | 35055 ft | 458 kts | 44° |
| 2026-05-09 11:17 | 44.55004 | 22.91164 | 35053 ft | 458 kts | 44° |
| 2026-05-09 11:18 | 44.59320 | 22.97669 | 35049 ft | 459 kts | 44° |
| 2026-05-09 11:18 | 44.63659 | 23.04222 | 35054 ft | 458 kts | 44° |
| 2026-05-09 11:19 | 44.67986 | 23.10774 | 35053 ft | 457 kts | 44° |
| 2026-05-09 11:19 | 44.71577 | 23.16223 | 35050 ft | 457 kts | 44° |
| 2026-05-09 11:20 | 44.76599 | 23.23854 | 35053 ft | 457 kts | 45° |
| 2026-05-09 11:20 | 44.80910 | 23.30432 | 35040 ft | 457 kts | 45° |
| 2026-05-09 11:21 | 44.84488 | 23.35906 | 35037 ft | 457 kts | 45° |
| 2026-05-09 11:21 | 44.88790 | 23.42486 | 35042 ft | 457 kts | 45° |
| 2026-05-09 11:22 | 44.93789 | 23.50162 | 35044 ft | 457 kts | 46° |
| 2026-05-09 11:22 | 44.97396 | 23.55706 | 35031 ft | 458 kts | 46° |
| 2026-05-09 11:23 | 45.01681 | 23.62279 | 35039 ft | 458 kts | 46° |
| 2026-05-09 11:23 | 45.05992 | 23.68924 | 35041 ft | 458 kts | 46° |
| 2026-05-09 11:24 | 45.10987 | 23.76664 | 35044 ft | 458 kts | 47° |
| 2026-05-09 11:24 | 45.14585 | 23.82253 | 35043 ft | 458 kts | 47° |
| 2026-05-09 11:25 | 45.18846 | 23.88887 | 35054 ft | 458 kts | 47° |
| 2026-05-09 11:25 | 45.23128 | 23.95569 | 35056 ft | 458 kts | 47° |
| 2026-05-09 11:26 | 45.27407 | 24.02263 | 35054 ft | 457 kts | 47° |
| 2026-05-09 11:26 | 45.31675 | 24.08954 | 35052 ft | 457 kts | 47° |
| 2026-05-09 11:27 | 45.35908 | 24.15609 | 35044 ft | 457 kts | 47° |
| 2026-05-09 11:27 | 45.40161 | 24.22310 | 35051 ft | 457 kts | 48° |
| 2026-05-09 11:28 | 45.44417 | 24.29033 | 35054 ft | 457 kts | 48° |
| 2026-05-09 11:28 | 45.48688 | 24.35740 | 35055 ft | 457 kts | 48° |
| 2026-05-09 11:29 | 45.52923 | 24.42499 | 35054 ft | 457 kts | 49° |
| 2026-05-09 11:29 | 45.57135 | 24.49221 | 35060 ft | 459 kts | 49° |
| 2026-05-09 11:30 | 45.61392 | 24.56013 | 35052 ft | 459 kts | 49° |
| 2026-05-09 11:30 | 45.65651 | 24.62821 | 35058 ft | 459 kts | 49° |
| 2026-05-09 11:31 | 45.69904 | 24.69639 | 35062 ft | 459 kts | 49° |
| 2026-05-09 11:31 | 45.74135 | 24.76438 | 35050 ft | 460 kts | 49° |
| 2026-05-09 11:32 | 45.78393 | 24.83298 | 35058 ft | 461 kts | 49° |
| 2026-05-09 11:32 | 45.82645 | 24.90165 | 35051 ft | 461 kts | 49° |
| 2026-05-09 11:33 | 45.86899 | 24.97052 | 35049 ft | 462 kts | 49° |
| 2026-05-09 11:33 | 45.93253 | 25.07372 | 35042 ft | 462 kts | 50° |
| 2026-05-09 11:34 | 45.97490 | 25.14305 | 35045 ft | 461 kts | 50° |
| 2026-05-09 11:34 | 46.01710 | 25.21264 | 35050 ft | 462 kts | 50° |
| 2026-05-09 11:35 | 46.05959 | 25.28194 | 35041 ft | 461 kts | 49° |
| 2026-05-09 11:35 | 46.10184 | 25.35067 | 35026 ft | 461 kts | 50° |
| 2026-05-09 11:36 | 46.14410 | 25.42013 | 35031 ft | 461 kts | 50° |
| 2026-05-09 11:36 | 46.18637 | 25.48989 | 35040 ft | 462 kts | 50° |
| 2026-05-09 11:37 | 46.22867 | 25.55987 | 35034 ft | 462 kts | 50° |
| 2026-05-09 11:37 | 46.27092 | 25.62992 | 35038 ft | 462 kts | 50° |
| 2026-05-09 11:38 | 46.31277 | 25.69955 | 35046 ft | 462 kts | 50° |
| 2026-05-09 11:38 | 46.35494 | 25.76993 | 35043 ft | 464 kts | 50° |
| 2026-05-09 11:39 | 46.39721 | 25.84054 | 35052 ft | 464 kts | 50° |
| 2026-05-09 11:40 | 46.46054 | 25.94660 | 35061 ft | 464 kts | 50° |
| 2026-05-09 11:40 | 46.50236 | 26.01713 | 35073 ft | 464 kts | 50° |
| 2026-05-09 11:41 | 46.54453 | 26.08824 | 35074 ft | 465 kts | 50° |
| 2026-05-09 11:41 | 46.58669 | 26.15953 | 35074 ft | 465 kts | 50° |
| 2026-05-09 11:42 | 46.62884 | 26.23091 | 35084 ft | 465 kts | 50° |
| 2026-05-09 11:42 | 46.67059 | 26.30187 | 35084 ft | 465 kts | 50° |
| 2026-05-09 11:43 | 46.71259 | 26.37348 | 35085 ft | 465 kts | 50° |
| 2026-05-09 11:43 | 46.75457 | 26.44519 | 35087 ft | 465 kts | 50° |
| 2026-05-09 11:44 | 46.79652 | 26.51700 | 35088 ft | 465 kts | 50° |
| 2026-05-09 11:44 | 46.83844 | 26.58893 | 35091 ft | 466 kts | 50° |
| 2026-05-09 11:45 | 46.88006 | 26.66061 | 35085 ft | 465 kts | 50° |
| 2026-05-09 11:45 | 46.92183 | 26.73273 | 35084 ft | 464 kts | 50° |
| 2026-05-09 11:46 | 46.96350 | 26.80487 | 35085 ft | 464 kts | 50° |
| 2026-05-09 11:46 | 47.00521 | 26.87725 | 35084 ft | 465 kts | 50° |
| 2026-05-09 11:47 | 47.04664 | 26.94936 | 35086 ft | 465 kts | 50° |
| 2026-05-09 11:47 | 47.08832 | 27.02210 | 35082 ft | 465 kts | 51° |
| 2026-05-09 11:48 | 47.12992 | 27.09485 | 35080 ft | 466 kts | 51° |
| 2026-05-09 11:48 | 47.17152 | 27.16783 | 35085 ft | 466 kts | 51° |
| 2026-05-09 11:49 | 47.21310 | 27.24098 | 35088 ft | 466 kts | 51° |
| 2026-05-09 11:49 | 47.25433 | 27.31369 | 35086 ft | 466 kts | 51° |
| 2026-05-09 11:50 | 47.29582 | 27.38706 | 35094 ft | 466 kts | 51° |
| 2026-05-09 11:50 | 47.33799 | 27.45953 | 35076 ft | 465 kts | 51° |
| 2026-05-09 11:51 | 47.38051 | 27.53157 | 35075 ft | 466 kts | 50° |
| 2026-05-09 11:51 | 47.42140 | 27.60498 | 35080 ft | 466 kts | 49° |
| 2026-05-09 11:52 | 47.46522 | 27.67576 | 35089 ft | 468 kts | 47° |
| 2026-05-09 11:52 | 47.50990 | 27.74586 | 35087 ft | 468 kts | 47° |
| 2026-05-09 11:53 | 47.55452 | 27.81598 | 35073 ft | 467 kts | 47° |
| 2026-05-09 11:53 | 47.59868 | 27.88563 | 35082 ft | 467 kts | 47° |
| 2026-05-09 11:54 | 47.64305 | 27.95575 | 35084 ft | 467 kts | 47° |
| 2026-05-09 11:54 | 47.68733 | 28.02618 | 35084 ft | 466 kts | 47° |
| 2026-05-09 11:55 | 47.73154 | 28.09651 | 35082 ft | 466 kts | 47° |
| 2026-05-09 11:56 | 47.86394 | 28.30813 | 35089 ft | 468 kts | 47° |
| 2026-05-09 11:57 | 47.90817 | 28.37925 | 35088 ft | 468 kts | 47° |
| 2026-05-09 11:57 | 47.95239 | 28.45040 | 35092 ft | 468 kts | 48° |
| 2026-05-09 11:58 | 47.99632 | 28.52133 | 35088 ft | 468 kts | 48° |
| 2026-05-09 11:58 | 48.04050 | 28.59289 | 35090 ft | 468 kts | 48° |
| 2026-05-09 11:59 | 48.08461 | 28.66451 | 35092 ft | 468 kts | 48° |
| 2026-05-09 11:59 | 48.12906 | 28.73586 | 35091 ft | 470 kts | 44° |
| 2026-05-09 12:00 | 48.17758 | 28.80054 | 35095 ft | 470 kts | 41° |
| 2026-05-09 12:00 | 48.22671 | 28.86529 | 35097 ft | 470 kts | 41° |
| 2026-05-09 12:01 | 48.27578 | 28.93022 | 35102 ft | 470 kts | 41° |
| 2026-05-09 12:01 | 48.32491 | 28.99515 | 35097 ft | 471 kts | 41° |
| 2026-05-09 12:02 | 48.37360 | 29.05996 | 35096 ft | 471 kts | 41° |
| 2026-05-09 12:02 | 48.42259 | 29.12538 | 35099 ft | 471 kts | 41° |
| 2026-05-09 12:03 | 48.47135 | 29.19059 | 35101 ft | 466 kts | 41° |
| 2026-05-09 12:03 | 48.51956 | 29.25534 | 35096 ft | 466 kts | 42° |
| 2026-05-09 12:04 | 48.56839 | 29.32098 | 35102 ft | 472 kts | 42° |
| 2026-05-09 12:04 | 48.61697 | 29.38663 | 35099 ft | 471 kts | 42° |
| 2026-05-09 12:05 | 48.66578 | 29.45277 | 35099 ft | 472 kts | 42° |
| 2026-05-09 12:05 | 48.71463 | 29.51914 | 35097 ft | 472 kts | 42° |
| 2026-05-09 12:06 | 48.76323 | 29.58520 | 35095 ft | 467 kts | 42° |
| 2026-05-09 12:06 | 48.81084 | 29.65010 | 35003 ft | 458 kts | 42° |
| 2026-05-09 12:06 | 48.83471 | 29.68270 | 34678 ft | 468 kts | 42° |
| 2026-05-09 12:07 | 48.85906 | 29.71608 | 34412 ft | 472 kts | 42° |
| 2026-05-09 12:07 | 48.88343 | 29.74948 | 34059 ft | 472 kts | 42° |
| 2026-05-09 12:07 | 48.90778 | 29.78288 | 33420 ft | 471 kts | 42° |
| 2026-05-09 12:07 | 48.93212 | 29.81632 | 32750 ft | 471 kts | 42° |
| 2026-05-09 12:08 | 48.95645 | 29.84978 | 32047 ft | 472 kts | 42° |
| 2026-05-09 12:08 | 48.98073 | 29.88330 | 31410 ft | 471 kts | 42° |
| 2026-05-09 12:08 | 49.00494 | 29.91675 | 30821 ft | 469 kts | 42° |
| 2026-05-09 12:08 | 49.02902 | 29.95009 | 30274 ft | 467 kts | 42° |
| 2026-05-09 12:09 | 49.05263 | 29.98281 | 29635 ft | 464 kts | 42° |
| 2026-05-09 12:09 | 49.07646 | 30.01586 | 28994 ft | 462 kts | 42° |
| 2026-05-09 12:09 | 49.10019 | 30.04876 | 28398 ft | 457 kts | 42° |
| 2026-05-09 12:10 | 49.16992 | 30.14580 | 26713 ft | 448 kts | 42° |
| 2026-05-09 12:10 | 49.19285 | 30.17776 | 26148 ft | 445 kts | 41° |
| 2026-05-09 12:10 | 49.21570 | 30.20961 | 25600 ft | 443 kts | 41° |
| 2026-05-09 12:11 | 49.23835 | 30.24136 | 25048 ft | 440 kts | 42° |
| 2026-05-09 12:11 | 49.26055 | 30.27257 | 24505 ft | 439 kts | 42° |
| 2026-05-09 12:11 | 49.28299 | 30.30411 | 23949 ft | 437 kts | 42° |
| 2026-05-09 12:11 | 49.30530 | 30.33548 | 23335 ft | 434 kts | 42° |
| 2026-05-09 12:12 | 49.32747 | 30.36669 | 22720 ft | 431 kts | 42° |
| 2026-05-09 12:12 | 49.34943 | 30.39767 | 22143 ft | 427 kts | 42° |
| 2026-05-09 12:12 | 49.37122 | 30.42844 | 21563 ft | 424 kts | 42° |
| 2026-05-09 12:12 | 49.39286 | 30.45898 | 20999 ft | 420 kts | 42° |
| 2026-05-09 12:13 | 49.41424 | 30.48920 | 20456 ft | 417 kts | 43° |
| 2026-05-09 12:13 | 49.43546 | 30.51921 | 19946 ft | 413 kts | 43° |
| 2026-05-09 12:13 | 49.45652 | 30.54901 | 19438 ft | 409 kts | 43° |
| 2026-05-09 12:13 | 49.47703 | 30.57802 | 18981 ft | 405 kts | 43° |
| 2026-05-09 12:14 | 49.49772 | 30.60725 | 18526 ft | 403 kts | 43° |
| 2026-05-09 12:14 | 49.51827 | 30.63633 | 18020 ft | 400 kts | 43° |
| 2026-05-09 12:14 | 49.53875 | 30.66537 | 17527 ft | 398 kts | 42° |
| 2026-05-09 12:14 | 49.56055 | 30.69110 | 17035 ft | 394 kts | 30° |
| 2026-05-09 12:15 | 49.58535 | 30.70861 | 16319 ft | 392 kts | 19° |
| 2026-05-09 12:15 | 49.61109 | 30.72247 | 15610 ft | 391 kts | 17° |
| 2026-05-09 12:15 | 49.63655 | 30.73583 | 14925 ft | 380 kts | 17° |
| 2026-05-09 12:15 | 49.66102 | 30.74884 | 14521 ft | 362 kts | 17° |
| 2026-05-09 12:16 | 49.68394 | 30.76121 | 14154 ft | 346 kts | 18° |
| 2026-05-09 12:16 | 49.70614 | 30.77328 | 13755 ft | 332 kts | 17° |
| 2026-05-09 12:16 | 49.72753 | 30.78491 | 13299 ft | 321 kts | 17° |
| 2026-05-09 12:16 | 49.74849 | 30.79628 | 12601 ft | 318 kts | 18° |
| 2026-05-09 12:17 | 49.76928 | 30.80762 | 11917 ft | 315 kts | 18° |
| 2026-05-09 12:17 | 49.78985 | 30.81887 | 11258 ft | 312 kts | 18° |
| 2026-05-09 12:17 | 49.81022 | 30.82998 | 10712 ft | 307 kts | 18° |
| 2026-05-09 12:17 | 49.83004 | 30.84084 | 10262 ft | 298 kts | 18° |
| 2026-05-09 12:18 | 49.84921 | 30.85135 | 9760 ft | 295 kts | 18° |
| 2026-05-09 12:18 | 49.86839 | 30.86193 | 9173 ft | 291 kts | 18° |
| 2026-05-09 12:18 | 49.88732 | 30.87240 | 8601 ft | 287 kts | 18° |
| 2026-05-09 12:18 | 49.90598 | 30.88277 | 8004 ft | 282 kts | 18° |
| 2026-05-09 12:19 | 49.92438 | 30.89284 | 7469 ft | 278 kts | 15° |
| 2026-05-09 12:19 | 49.94318 | 30.89816 | 6945 ft | 272 kts | 0° |
| 2026-05-09 12:19 | 49.96177 | 30.89573 | 6393 ft | 266 kts | 345° |
| 2026-05-09 12:19 | 49.97852 | 30.88594 | 6068 ft | 256 kts | 332° |
| 2026-05-09 12:20 | 49.99438 | 30.87432 | 5776 ft | 249 kts | 336° |
| 2026-05-09 12:20 | 50.01094 | 30.86856 | 5609 ft | 242 kts | 358° |
| 2026-05-09 12:20 | 50.02768 | 30.87103 | 5277 ft | 243 kts | 9° |
| 2026-05-09 12:20 | 50.04410 | 30.87668 | 4907 ft | 241 kts | 11° |
| 2026-05-09 12:21 | 50.06053 | 30.88186 | 4500 ft | 241 kts | 8° |
| 2026-05-09 12:21 | 50.07708 | 30.88555 | 4178 ft | 240 kts | 5° |
| 2026-05-09 12:21 | 50.09366 | 30.88692 | 3915 ft | 238 kts | 1° |
| 2026-05-09 12:21 | 50.10993 | 30.88818 | 3630 ft | 236 kts | 1° |
| 2026-05-09 12:22 | 50.12624 | 30.88938 | 3320 ft | 232 kts | 1° |
| 2026-05-09 12:22 | 50.14212 | 30.89053 | 3108 ft | 225 kts | 2° |
| 2026-05-09 12:22 | 50.15769 | 30.89167 | 2956 ft | 220 kts | 2° |
| 2026-05-09 12:22 | 50.17237 | 30.89274 | 2939 ft | 204 kts | 2° |
| 2026-05-09 12:23 | 50.18650 | 30.89377 | 2952 ft | 203 kts | 2° |
| 2026-05-09 12:23 | 50.20056 | 30.89480 | 2861 ft | 202 kts | 2° |
| 2026-05-09 12:23 | 50.21459 | 30.89582 | 2626 ft | 202 kts | 2° |
| 2026-05-09 12:23 | 50.22857 | 30.89685 | 2351 ft | 198 kts | 2° |
| 2026-05-09 12:24 | 50.24175 | 30.89782 | 2141 ft | 186 kts | 2° |
| 2026-05-09 12:24 | 50.25425 | 30.89874 | 1878 ft | 173 kts | 2° |
| 2026-05-09 12:24 | 50.26562 | 30.89959 | 1659 ft | 152 kts | 1° |
| 2026-05-09 12:24 | 50.27543 | 30.90031 | 1415 ft | 136 kts | 1° |
| 2026-05-09 12:25 | 50.28489 | 30.90101 | 1221 ft | 136 kts | 1° |
| 2026-05-09 12:25 | 50.29431 | 30.90170 | 1040 ft | 136 kts | 1° |
| 2026-05-09 12:25 | 50.30372 | 30.90236 | 857 ft | 135 kts | 1° |
| 2026-05-09 12:25 | 50.31312 | 30.90289 | 684 ft | 135 kts | 1° |
| 2026-05-09 12:26 | 50.32249 | 30.90363 | 507 ft | 135 kts | 2° |
| 2026-05-09 12:26 | 50.33142 | 30.90432 | 417 ft | 110 kts | 3° |
| 2026-05-09 12:26 | 50.33697 | 30.90474 | 424 ft | 52 kts | 3° |
| 2026-05-09 12:26 | 50.33927 | 30.90490 | 421 ft | 28 kts | 3° |
| 2026-05-09 12:27 | 50.34121 | 30.90505 | 417 ft | 21 kts | 3° |
| 2026-05-09 12:27 | 50.34221 | 30.90498 | 420 ft | 15 kts | 350° |
| 2026-05-09 12:27 | 50.34325 | 30.90454 | 426 ft | 16 kts | 334° |
| 2026-05-09 12:27 | 50.34434 | 30.90375 | 415 ft | 18 kts | 335° |
| 2026-05-09 12:28 | 50.34548 | 30.90283 | 416 ft | 19 kts | 331° |
| 2026-05-09 12:28 | 50.34654 | 30.90219 | 419 ft | 15 kts | 0° |
| 2026-05-09 12:28 | 50.34762 | 30.90228 | 421 ft | 16 kts | 3° |
| 2026-05-09 12:28 | 50.34846 | 30.90231 | 412 ft | 8 kts | 346° |
| 2026-05-09 12:29 | 50.34885 | 30.90165 | 411 ft | 10 kts | 294° |
| 2026-05-09 12:29 | 50.34896 | 30.90050 | 418 ft | 12 kts | 289° |
| 2026-05-09 12:29 | 50.34958 | 30.90001 | 416 ft | 8 kts | 4° |
| 2026-05-09 12:29 | 50.35022 | 30.90005 | 417 ft | 10 kts | 2° |
| 2026-05-09 12:30 | 50.35082 | 30.90009 | 419 ft | 4 kts | 1° |
| 2026-05-09 12:30 | 50.35117 | 30.90022 | 420 ft | 7 kts | 47° |
| 2026-05-09 12:30 | 50.35119 | 30.90133 | 420 ft | 2 kts | 92° |
| 2026-05-09 12:31 | 50.35119 | 30.90136 | 420 ft | 0 kts | 92° |